sensor_id;sensor_type;location;lat;lon;timestamp;temperature;humidity
20481;DHT22;10399;50.754;3.366;2022-09-01T00:00:00;22.40;99.90
20481;DHT22;10399;50.754;3.366;2022-09-01T00:02:29;22.30;99.90
20481;DHT22;10399;50.754;3.366;2022-09-01T00:04:57;22.30;99.90
20481;DHT22;10399;50.754;3.366;2022-09-01T00:07:26;22.10;99.90
20481;DHT22;10399;50.754;3.366;2022-09-01T00:09:56;22.10;99.90
20481;DHT22;10399;50.754;3.366;2022-09-01T00:12:24;22.00;99.90
20481;DHT22;10399;50.754;3.366;2022-09-01T00:14:51;21.90;99.90
20481;DHT22;10399;50.754;3.366;2022-09-01T00:17:19;21.90;99.90
20481;DHT22;10399;50.754;3.366;2022-09-01T00:19:47;21.90;99.90
20481;DHT22;10399;50.754;3.366;2022-09-01T00:22:15;21.80;99.90
20481;DHT22;10399;50.754;3.366;2022-09-01T00:24:42;21.80;99.90
20481;DHT22;10399;50.754;3.366;2022-09-01T00:27:09;21.70;99.90
20481;DHT22;10399;50.754;3.366;2022-09-01T00:29:36;21.70;99.90
20481;DHT22;10399;50.754;3.366;2022-09-01T00:32:09;21.70;99.90
20481;DHT22;10399;50.754;3.366;2022-09-01T00:34:36;21.50;99.90
20481;DHT22;10399;50.754;3.366;2022-09-01T00:37:03;21.50;99.90
20481;DHT22;10399;50.754;3.366;2022-09-01T00:39:30;21.40;99.90
20481;DHT22;10399;50.754;3.366;2022-09-01T00:41:57;21.50;99.90
20481;DHT22;10399;50.754;3.366;2022-09-01T00:44:25;21.40;99.90
20481;DHT22;10399;50.754;3.366;2022-09-01T00:46:57;21.40;99.90
20481;DHT22;10399;50.754;3.366;2022-09-01T00:49:35;21.50;99.90
20481;DHT22;10399;50.754;3.366;2022-09-01T00:52:12;21.60;99.90
20481;DHT22;10399;50.754;3.366;2022-09-01T00:54:44;21.50;99.90
20481;DHT22;10399;50.754;3.366;2022-09-01T00:57:11;21.50;99.90
20481;DHT22;10399;50.754;3.366;2022-09-01T00:59:46;21.40;99.90
20481;DHT22;10399;50.754;3.366;2022-09-01T01:02:15;21.40;99.90
20481;DHT22;10399;50.754;3.366;2022-09-01T01:04:42;21.40;99.90
20481;DHT22;10399;50.754;3.366;2022-09-01T01:07:11;21.30;99.90
20481;DHT22;10399;50.754;3.366;2022-09-01T01:09:41;21.40;99.90
20481;DHT22;10399;50.754;3.366;2022-09-01T01:12:10;21.40;99.90
20481;DHT22;10399;50.754;3.366;2022-09-01T01:14:48;21.30;99.90
20481;DHT22;10399;50.754;3.366;2022-09-01T01:17:18;21.30;99.90
20481;DHT22;10399;50.754;3.366;2022-09-01T01:19:50;21.30;99.90
20481;DHT22;10399;50.754;3.366;2022-09-01T01:22:43;21.30;99.90
20481;DHT22;10399;50.754;3.366;2022-09-01T01:30:31;21.40;99.90
20481;DHT22;10399;50.754;3.366;2022-09-01T01:32:59;21.40;99.90
20481;DHT22;10399;50.754;3.366;2022-09-01T01:35:29;21.50;99.90
20481;DHT22;10399;50.754;3.366;2022-09-01T01:37:57;21.30;99.90
20481;DHT22;10399;50.754;3.366;2022-09-01T01:40:24;21.30;99.90
20481;DHT22;10399;50.754;3.366;2022-09-01T01:42:52;21.30;99.90
20481;DHT22;10399;50.754;3.366;2022-09-01T01:45:22;21.20;99.90
20481;DHT22;10399;50.754;3.366;2022-09-01T01:47:51;21.20;99.90
20481;DHT22;10399;50.754;3.366;2022-09-01T01:50:27;21.10;99.90
20481;DHT22;10399;50.754;3.366;2022-09-01T01:53:04;21.10;99.90
20481;DHT22;10399;50.754;3.366;2022-09-01T01:55:38;21.00;99.90
20481;DHT22;10399;50.754;3.366;2022-09-01T01:58:05;20.90;99.90
20481;DHT22;10399;50.754;3.366;2022-09-01T02:00:38;20.80;99.90
20481;DHT22;10399;50.754;3.366;2022-09-01T02:03:05;20.90;99.90
20481;DHT22;10399;50.754;3.366;2022-09-01T02:05:35;20.90;99.90
20481;DHT22;10399;50.754;3.366;2022-09-01T02:08:05;21.00;99.90
20481;DHT22;10399;50.754;3.366;2022-09-01T02:10:39;21.10;99.90
20481;DHT22;10399;50.754;3.366;2022-09-01T02:13:09;21.10;99.90
20481;DHT22;10399;50.754;3.366;2022-09-01T02:15:54;20.90;99.90
20481;DHT22;10399;50.754;3.366;2022-09-01T02:18:29;21.00;99.90
20481;DHT22;10399;50.754;3.366;2022-09-01T02:20:57;20.80;99.90
20481;DHT22;10399;50.754;3.366;2022-09-01T02:23:27;20.70;99.90
20481;DHT22;10399;50.754;3.366;2022-09-01T02:25:58;20.60;99.90
20481;DHT22;10399;50.754;3.366;2022-09-01T02:28:44;20.50;99.90
20481;DHT22;10399;50.754;3.366;2022-09-01T02:31:21;20.50;99.90
20481;DHT22;10399;50.754;3.366;2022-09-01T02:33:49;20.40;99.90
20481;DHT22;10399;50.754;3.366;2022-09-01T02:36:17;20.30;99.90
20481;DHT22;10399;50.754;3.366;2022-09-01T02:38:46;20.40;99.90
20481;DHT22;10399;50.754;3.366;2022-09-01T02:41:22;20.30;99.90
20481;DHT22;10399;50.754;3.366;2022-09-01T02:43:55;20.30;99.90
20481;DHT22;10399;50.754;3.366;2022-09-01T02:46:22;20.30;99.90
20481;DHT22;10399;50.754;3.366;2022-09-01T02:48:50;20.30;99.90
20481;DHT22;10399;50.754;3.366;2022-09-01T02:51:20;20.30;99.90
20481;DHT22;10399;50.754;3.366;2022-09-01T02:53:48;20.20;99.90
20481;DHT22;10399;50.754;3.366;2022-09-01T02:56:22;20.20;99.90
20481;DHT22;10399;50.754;3.366;2022-09-01T02:58:52;20.20;99.90
20481;DHT22;10399;50.754;3.366;2022-09-01T03:01:26;20.20;99.90
20481;DHT22;10399;50.754;3.366;2022-09-01T03:04:01;20.20;99.90
20481;DHT22;10399;50.754;3.366;2022-09-01T03:06:29;20.30;99.90
20481;DHT22;10399;50.754;3.366;2022-09-01T03:09:00;20.10;99.90
20481;DHT22;10399;50.754;3.366;2022-09-01T03:11:30;20.00;99.90
20481;DHT22;10399;50.754;3.366;2022-09-01T03:13:57;20.00;99.90
20481;DHT22;10399;50.754;3.366;2022-09-01T03:16:25;19.90;99.90
20481;DHT22;10399;50.754;3.366;2022-09-01T03:18:52;19.90;99.90
20481;DHT22;10399;50.754;3.366;2022-09-01T03:21:20;19.90;99.90
20481;DHT22;10399;50.754;3.366;2022-09-01T03:23:48;19.90;99.90
20481;DHT22;10399;50.754;3.366;2022-09-01T03:26:17;20.00;99.90
20481;DHT22;10399;50.754;3.366;2022-09-01T03:28:50;19.90;99.90
20481;DHT22;10399;50.754;3.366;2022-09-01T03:31:19;19.90;99.90
20481;DHT22;10399;50.754;3.366;2022-09-01T03:33:47;19.90;99.90
20481;DHT22;10399;50.754;3.366;2022-09-01T03:36:14;19.90;99.90
20481;DHT22;10399;50.754;3.366;2022-09-01T03:38:48;19.80;99.90
20481;DHT22;10399;50.754;3.366;2022-09-01T03:41:22;19.80;99.90
20481;DHT22;10399;50.754;3.366;2022-09-01T03:43:51;19.80;99.90
20481;DHT22;10399;50.754;3.366;2022-09-01T03:46:24;19.70;99.90
20481;DHT22;10399;50.754;3.366;2022-09-01T03:48:54;19.80;99.90
20481;DHT22;10399;50.754;3.366;2022-09-01T03:51:22;19.70;99.90
20481;DHT22;10399;50.754;3.366;2022-09-01T03:53:52;19.60;99.90
20481;DHT22;10399;50.754;3.366;2022-09-01T03:56:26;19.50;99.90
20481;DHT22;10399;50.754;3.366;2022-09-01T03:58:55;19.70;99.90
20481;DHT22;10399;50.754;3.366;2022-09-01T04:01:25;19.60;99.90
20481;DHT22;10399;50.754;3.366;2022-09-01T04:03:53;19.70;99.90
20481;DHT22;10399;50.754;3.366;2022-09-01T04:06:20;19.70;99.90
20481;DHT22;10399;50.754;3.366;2022-09-01T04:08:51;19.70;99.90
20481;DHT22;10399;50.754;3.366;2022-09-01T04:11:23;19.70;99.90
20481;DHT22;10399;50.754;3.366;2022-09-01T04:13:51;19.70;99.90
20481;DHT22;10399;50.754;3.366;2022-09-01T04:16:20;19.60;99.90
20481;DHT22;10399;50.754;3.366;2022-09-01T04:19:06;19.60;99.90
20481;DHT22;10399;50.754;3.366;2022-09-01T04:21:47;19.40;99.90
20481;DHT22;10399;50.754;3.366;2022-09-01T04:24:21;19.30;99.90
20481;DHT22;10399;50.754;3.366;2022-09-01T04:26:57;19.30;99.90
20481;DHT22;10399;50.754;3.366;2022-09-01T04:29:25;19.30;99.90
20481;DHT22;10399;50.754;3.366;2022-09-01T04:31:59;19.30;99.90
20481;DHT22;10399;50.754;3.366;2022-09-01T04:34:34;19.30;99.90
20481;DHT22;10399;50.754;3.366;2022-09-01T04:37:13;19.20;99.90
20481;DHT22;10399;50.754;3.366;2022-09-01T04:39:41;19.20;99.90
20481;DHT22;10399;50.754;3.366;2022-09-01T04:42:21;19.20;99.90
20481;DHT22;10399;50.754;3.366;2022-09-01T04:44:51;19.20;99.90
20481;DHT22;10399;50.754;3.366;2022-09-01T04:47:19;19.10;99.90
20481;DHT22;10399;50.754;3.366;2022-09-01T04:50:04;19.10;99.90
20481;DHT22;10399;50.754;3.366;2022-09-01T04:52:41;19.00;99.90
20481;DHT22;10399;50.754;3.366;2022-09-01T04:55:11;19.20;99.90
20481;DHT22;10399;50.754;3.366;2022-09-01T04:57:45;19.10;99.90
20481;DHT22;10399;50.754;3.366;2022-09-01T05:00:19;19.10;99.90
20481;DHT22;10399;50.754;3.366;2022-09-01T05:02:58;19.20;99.90
20481;DHT22;10399;50.754;3.366;2022-09-01T05:05:43;19.20;99.90
20481;DHT22;10399;50.754;3.366;2022-09-01T05:08:18;19.20;99.90
20481;DHT22;10399;50.754;3.366;2022-09-01T05:10:51;19.20;99.90
20481;DHT22;10399;50.754;3.366;2022-09-01T05:13:20;19.10;99.90
20481;DHT22;10399;50.754;3.366;2022-09-01T05:16:00;19.00;99.90
20481;DHT22;10399;50.754;3.366;2022-09-01T05:18:28;19.10;99.90
20481;DHT22;10399;50.754;3.366;2022-09-01T05:20:55;19.00;99.90
20481;DHT22;10399;50.754;3.366;2022-09-01T05:23:23;19.10;99.90
20481;DHT22;10399;50.754;3.366;2022-09-01T05:25:52;19.20;99.90
20481;DHT22;10399;50.754;3.366;2022-09-01T05:28:21;19.10;99.90
20481;DHT22;10399;50.754;3.366;2022-09-01T05:30:51;19.10;99.90
20481;DHT22;10399;50.754;3.366;2022-09-01T05:33:21;19.10;99.90
20481;DHT22;10399;50.754;3.366;2022-09-01T05:35:54;19.10;99.90
20481;DHT22;10399;50.754;3.366;2022-09-01T05:38:22;19.20;99.90
20481;DHT22;10399;50.754;3.366;2022-09-01T05:41:02;19.10;99.90
20481;DHT22;10399;50.754;3.366;2022-09-01T05:43:30;19.00;99.90
20481;DHT22;10399;50.754;3.366;2022-09-01T05:45:59;19.20;99.90
20481;DHT22;10399;50.754;3.366;2022-09-01T05:48:33;19.20;99.90
20481;DHT22;10399;50.754;3.366;2022-09-01T05:51:07;19.30;99.90
20481;DHT22;10399;50.754;3.366;2022-09-01T05:53:56;19.30;99.90
20481;DHT22;10399;50.754;3.366;2022-09-01T05:56:26;19.30;99.90
20481;DHT22;10399;50.754;3.366;2022-09-01T05:58:55;19.50;99.90
20481;DHT22;10399;50.754;3.366;2022-09-01T06:01:43;19.70;99.90
20481;DHT22;10399;50.754;3.366;2022-09-01T06:04:16;19.60;99.90
20481;DHT22;10399;50.754;3.366;2022-09-01T06:06:46;19.80;99.90
20481;DHT22;10399;50.754;3.366;2022-09-01T06:09:38;19.70;99.90
20481;DHT22;10399;50.754;3.366;2022-09-01T06:12:06;19.70;99.90
20481;DHT22;10399;50.754;3.366;2022-09-01T06:14:45;19.60;99.90
20481;DHT22;10399;50.754;3.366;2022-09-01T06:17:13;19.60;99.90
20481;DHT22;10399;50.754;3.366;2022-09-01T06:19:42;19.80;99.90
20481;DHT22;10399;50.754;3.366;2022-09-01T06:22:10;19.80;99.90
20481;DHT22;10399;50.754;3.366;2022-09-01T06:24:38;19.80;99.90
20481;DHT22;10399;50.754;3.366;2022-09-01T06:27:06;19.80;99.90
20481;DHT22;10399;50.754;3.366;2022-09-01T06:29:36;20.00;99.90
20481;DHT22;10399;50.754;3.366;2022-09-01T06:32:06;19.90;99.90
20481;DHT22;10399;50.754;3.366;2022-09-01T06:34:39;19.90;99.90
20481;DHT22;10399;50.754;3.366;2022-09-01T06:37:11;20.00;99.90
20481;DHT22;10399;50.754;3.366;2022-09-01T06:39:39;19.90;99.90
20481;DHT22;10399;50.754;3.366;2022-09-01T06:42:06;20.20;99.90
20481;DHT22;10399;50.754;3.366;2022-09-01T06:44:35;20.30;99.90
20481;DHT22;10399;50.754;3.366;2022-09-01T06:47:06;20.30;99.90
20481;DHT22;10399;50.754;3.366;2022-09-01T06:49:34;20.30;99.90
20481;DHT22;10399;50.754;3.366;2022-09-01T06:52:04;20.30;99.90
20481;DHT22;10399;50.754;3.366;2022-09-01T06:54:32;20.50;99.90
20481;DHT22;10399;50.754;3.366;2022-09-01T06:57:04;20.70;99.90
20481;DHT22;10399;50.754;3.366;2022-09-01T06:59:51;20.80;99.90
20481;DHT22;10399;50.754;3.366;2022-09-01T07:02:20;21.00;99.90
20481;DHT22;10399;50.754;3.366;2022-09-01T07:04:52;21.10;99.90
20481;DHT22;10399;50.754;3.366;2022-09-01T07:07:19;21.20;99.90
20481;DHT22;10399;50.754;3.366;2022-09-01T07:10:08;21.30;99.90
20481;DHT22;10399;50.754;3.366;2022-09-01T07:12:53;21.30;99.90
20481;DHT22;10399;50.754;3.366;2022-09-01T07:15:39;21.60;99.90
20481;DHT22;10399;50.754;3.366;2022-09-01T07:18:30;21.70;99.90
20481;DHT22;10399;50.754;3.366;2022-09-01T07:20:57;21.80;99.90
20481;DHT22;10399;50.754;3.366;2022-09-01T07:23:46;22.00;99.90
20481;DHT22;10399;50.754;3.366;2022-09-01T07:26:34;22.10;99.90
20481;DHT22;10399;50.754;3.366;2022-09-01T07:29:04;22.30;99.90
20481;DHT22;10399;50.754;3.366;2022-09-01T07:31:38;22.40;99.90
20481;DHT22;10399;50.754;3.366;2022-09-01T07:34:27;22.30;99.90
20481;DHT22;10399;50.754;3.366;2022-09-01T07:37:12;22.50;99.90
20481;DHT22;10399;50.754;3.366;2022-09-01T07:39:59;22.60;99.90
20481;DHT22;10399;50.754;3.366;2022-09-01T07:42:47;22.70;99.90
20481;DHT22;10399;50.754;3.366;2022-09-01T07:45:30;22.60;99.90
20481;DHT22;10399;50.754;3.366;2022-09-01T07:47:58;22.60;99.90
20481;DHT22;10399;50.754;3.366;2022-09-01T07:50:29;22.70;99.90
20481;DHT22;10399;50.754;3.366;2022-09-01T07:53:26;22.90;99.90
20481;DHT22;10399;50.754;3.366;2022-09-01T07:55:54;23.00;99.90
20481;DHT22;10399;50.754;3.366;2022-09-01T07:58:24;23.00;99.90
20481;DHT22;10399;50.754;3.366;2022-09-01T08:00:53;23.30;99.90
20481;DHT22;10399;50.754;3.366;2022-09-01T08:03:23;23.40;99.90
20481;DHT22;10399;50.754;3.366;2022-09-01T08:05:51;23.70;99.90
20481;DHT22;10399;50.754;3.366;2022-09-01T08:08:26;23.90;99.90
20481;DHT22;10399;50.754;3.366;2022-09-01T08:10:55;24.00;99.90
20481;DHT22;10399;50.754;3.366;2022-09-01T08:13:30;24.20;99.90
20481;DHT22;10399;50.754;3.366;2022-09-01T08:16:07;24.20;99.90
20481;DHT22;10399;50.754;3.366;2022-09-01T08:18:44;24.20;99.90
20481;DHT22;10399;50.754;3.366;2022-09-01T08:21:17;24.50;99.90
20481;DHT22;10399;50.754;3.366;2022-09-01T08:23:48;24.90;99.90
20481;DHT22;10399;50.754;3.366;2022-09-01T08:26:17;25.20;99.90
20481;DHT22;10399;50.754;3.366;2022-09-01T08:28:45;25.30;99.90
20481;DHT22;10399;50.754;3.366;2022-09-01T08:31:21;25.40;99.90
20481;DHT22;10399;50.754;3.366;2022-09-01T08:33:49;25.60;99.90
20481;DHT22;10399;50.754;3.366;2022-09-01T08:36:17;25.70;99.90
20481;DHT22;10399;50.754;3.366;2022-09-01T08:38:51;26.00;99.90
20481;DHT22;10399;50.754;3.366;2022-09-01T08:47:09;26.30;99.90
20481;DHT22;10399;50.754;3.366;2022-09-01T08:49:41;26.30;99.90
20481;DHT22;10399;50.754;3.366;2022-09-01T08:55:09;26.80;99.90
20481;DHT22;10399;50.754;3.366;2022-09-01T08:57:43;27.00;99.90
20481;DHT22;10399;50.754;3.366;2022-09-01T09:00:15;27.10;99.90
20481;DHT22;10399;50.754;3.366;2022-09-01T09:02:58;27.30;99.90
20481;DHT22;10399;50.754;3.366;2022-09-01T09:08:59;27.90;99.90
20481;DHT22;10399;50.754;3.366;2022-09-01T09:17:07;28.50;99.90
20481;DHT22;10399;50.754;3.366;2022-09-01T09:19:39;28.60;99.90
20481;DHT22;10399;50.754;3.366;2022-09-01T09:22:09;28.90;99.90
20481;DHT22;10399;50.754;3.366;2022-09-01T09:24:50;29.10;99.90
20481;DHT22;10399;50.754;3.366;2022-09-01T09:27:24;28.90;99.90
20481;DHT22;10399;50.754;3.366;2022-09-01T09:32:59;29.10;99.90
20481;DHT22;10399;50.754;3.366;2022-09-01T09:35:49;29.20;99.90
20481;DHT22;10399;50.754;3.366;2022-09-01T09:38:21;29.50;99.90
20481;DHT22;10399;50.754;3.366;2022-09-01T09:43:51;29.60;99.90
20481;DHT22;10399;50.754;3.366;2022-09-01T09:51:45;30.20;99.90
20481;DHT22;10399;50.754;3.366;2022-09-01T09:54:21;30.60;99.90
20481;DHT22;10399;50.754;3.366;2022-09-01T09:57:19;30.50;99.90
20481;DHT22;10399;50.754;3.366;2022-09-01T10:02:44;31.10;99.90
20481;DHT22;10399;50.754;3.366;2022-09-01T10:05:35;31.30;99.90
20481;DHT22;10399;50.754;3.366;2022-09-01T10:08:05;31.80;99.90
20481;DHT22;10399;50.754;3.366;2022-09-01T10:15:44;32.20;98.40
20481;DHT22;10399;50.754;3.366;2022-09-01T10:18:19;32.00;98.00
20481;DHT22;10399;50.754;3.366;2022-09-01T10:21:02;32.20;97.60
20481;DHT22;10399;50.754;3.366;2022-09-01T10:23:33;32.40;97.70
20481;DHT22;10399;50.754;3.366;2022-09-01T10:26:10;32.60;97.10
20481;DHT22;10399;50.754;3.366;2022-09-01T10:28:50;32.60;97.00
20481;DHT22;10399;50.754;3.366;2022-09-01T10:31:19;32.60;96.10
20481;DHT22;10399;50.754;3.366;2022-09-01T10:33:48;32.60;96.40
20481;DHT22;10399;50.754;3.366;2022-09-01T10:36:16;32.50;96.50
20481;DHT22;10399;50.754;3.366;2022-09-01T10:38:44;32.90;96.10
20481;DHT22;10399;50.754;3.366;2022-09-01T10:44:10;33.40;94.70
20481;DHT22;10399;50.754;3.366;2022-09-01T10:46:45;33.60;94.10
20481;DHT22;10399;50.754;3.366;2022-09-01T10:51:56;32.80;93.50
20481;DHT22;10399;50.754;3.366;2022-09-01T10:57:41;32.70;93.50
20481;DHT22;10399;50.754;3.366;2022-09-01T11:06:07;32.00;92.30
20481;DHT22;10399;50.754;3.366;2022-09-01T11:08:54;32.00;92.90
20481;DHT22;10399;50.754;3.366;2022-09-01T11:11:46;32.10;91.60
20481;DHT22;10399;50.754;3.366;2022-09-01T11:14:20;31.20;90.90
20481;DHT22;10399;50.754;3.366;2022-09-01T11:17:12;30.90;91.80
20481;DHT22;10399;50.754;3.366;2022-09-01T11:22:42;31.40;91.90
20481;DHT22;10399;50.754;3.366;2022-09-01T11:39:02;32.50;90.70
20481;DHT22;10399;50.754;3.366;2022-09-01T11:44:22;32.40;91.10
20481;DHT22;10399;50.754;3.366;2022-09-01T11:46:51;32.70;91.20
20481;DHT22;10399;50.754;3.366;2022-09-01T11:49:29;32.70;89.40
20481;DHT22;10399;50.754;3.366;2022-09-01T11:51:58;31.70;89.80
20481;DHT22;10399;50.754;3.366;2022-09-01T11:54:27;31.50;90.20
20481;DHT22;10399;50.754;3.366;2022-09-01T11:56:55;31.50;90.50
20481;DHT22;10399;50.754;3.366;2022-09-01T11:59:33;32.00;91.00
20481;DHT22;10399;50.754;3.366;2022-09-01T12:02:01;32.50;90.60
20481;DHT22;10399;50.754;3.366;2022-09-01T12:04:34;33.20;90.30
20481;DHT22;10399;50.754;3.366;2022-09-01T12:07:10;33.40;90.20
20481;DHT22;10399;50.754;3.366;2022-09-01T12:09:44;33.50;89.10
20481;DHT22;10399;50.754;3.366;2022-09-01T12:12:37;34.10;88.80
20481;DHT22;10399;50.754;3.366;2022-09-01T12:17:39;33.00;88.00
20481;DHT22;10399;50.754;3.366;2022-09-01T12:20:30;33.00;88.00
20481;DHT22;10399;50.754;3.366;2022-09-01T12:22:59;33.00;85.60
20481;DHT22;10399;50.754;3.366;2022-09-01T12:25:32;33.20;84.40
20481;DHT22;10399;50.754;3.366;2022-09-01T12:28:02;32.80;83.60
20481;DHT22;10399;50.754;3.366;2022-09-01T12:30:31;32.60;84.10
20481;DHT22;10399;50.754;3.366;2022-09-01T12:33:04;32.30;83.40
20481;DHT22;10399;50.754;3.366;2022-09-01T12:38:47;33.10;85.00
20481;DHT22;10399;50.754;3.366;2022-09-01T12:41:32;33.80;84.10
20481;DHT22;10399;50.754;3.366;2022-09-01T12:46:59;33.60;83.00
20481;DHT22;10399;50.754;3.366;2022-09-01T12:54:36;32.90;84.20
20481;DHT22;10399;50.754;3.366;2022-09-01T12:57:04;33.50;83.60
20481;DHT22;10399;50.754;3.366;2022-09-01T12:59:32;33.70;81.90
20481;DHT22;10399;50.754;3.366;2022-09-01T13:02:32;34.10;82.10
20481;DHT22;10399;50.754;3.366;2022-09-01T13:05:26;34.30;80.60
20481;DHT22;10399;50.754;3.366;2022-09-01T13:08:06;34.10;80.30
20481;DHT22;10399;50.754;3.366;2022-09-01T13:13:10;33.30;80.00
20481;DHT22;10399;50.754;3.366;2022-09-01T13:15:45;33.10;79.90
20481;DHT22;10399;50.754;3.366;2022-09-01T13:18:23;32.90;80.50
20481;DHT22;10399;50.754;3.366;2022-09-01T13:20:51;32.80;81.20
20481;DHT22;10399;50.754;3.366;2022-09-01T13:23:19;33.60;82.00
20481;DHT22;10399;50.754;3.366;2022-09-01T13:25:47;33.90;80.70
20481;DHT22;10399;50.754;3.366;2022-09-01T13:28:15;34.20;79.90
20481;DHT22;10399;50.754;3.366;2022-09-01T13:30:44;34.50;79.20
20481;DHT22;10399;50.754;3.366;2022-09-01T13:33:13;34.60;78.80
20481;DHT22;10399;50.754;3.366;2022-09-01T13:35:46;34.50;78.60
20481;DHT22;10399;50.754;3.366;2022-09-01T13:38:13;34.80;78.20
20481;DHT22;10399;50.754;3.366;2022-09-01T13:40:43;34.90;77.40
20481;DHT22;10399;50.754;3.366;2022-09-01T13:43:18;35.60;77.60
20481;DHT22;10399;50.754;3.366;2022-09-01T13:45:46;34.70;75.90
20481;DHT22;10399;50.754;3.366;2022-09-01T13:48:14;34.90;75.30
20481;DHT22;10399;50.754;3.366;2022-09-01T13:50:44;34.80;76.20
20481;DHT22;10399;50.754;3.366;2022-09-01T13:53:33;34.60;74.70
20481;DHT22;10399;50.754;3.366;2022-09-01T13:55:59;33.80;75.70
20481;DHT22;10399;50.754;3.366;2022-09-01T13:58:27;33.90;76.10
20481;DHT22;10399;50.754;3.366;2022-09-01T14:00:54;33.80;76.10
20481;DHT22;10399;50.754;3.366;2022-09-01T14:03:25;33.80;76.00
20481;DHT22;10399;50.754;3.366;2022-09-01T14:05:53;33.70;76.80
20481;DHT22;10399;50.754;3.366;2022-09-01T14:08:21;32.70;75.10
20481;DHT22;10399;50.754;3.366;2022-09-01T14:10:51;32.60;76.90
20481;DHT22;10399;50.754;3.366;2022-09-01T14:13:20;32.90;75.80
20481;DHT22;10399;50.754;3.366;2022-09-01T14:15:48;32.90;75.60
20481;DHT22;10399;50.754;3.366;2022-09-01T14:18:16;33.00;75.70
20481;DHT22;10399;50.754;3.366;2022-09-01T14:20:46;33.10;75.70
20481;DHT22;10399;50.754;3.366;2022-09-01T14:23:14;32.90;75.20
20481;DHT22;10399;50.754;3.366;2022-09-01T14:25:44;33.00;75.90
20481;DHT22;10399;50.754;3.366;2022-09-01T14:28:12;32.90;76.20
20481;DHT22;10399;50.754;3.366;2022-09-01T14:30:42;33.10;75.90
20481;DHT22;10399;50.754;3.366;2022-09-01T14:33:09;33.30;75.10
20481;DHT22;10399;50.754;3.366;2022-09-01T14:35:42;33.60;76.10
20481;DHT22;10399;50.754;3.366;2022-09-01T14:38:10;33.60;74.40
20481;DHT22;10399;50.754;3.366;2022-09-01T14:40:37;33.40;73.60
20481;DHT22;10399;50.754;3.366;2022-09-01T14:43:06;33.40;74.10
20481;DHT22;10399;50.754;3.366;2022-09-01T14:45:36;33.40;75.50
20481;DHT22;10399;50.754;3.366;2022-09-01T14:48:03;33.60;75.10
20481;DHT22;10399;50.754;3.366;2022-09-01T14:50:31;33.30;74.40
20481;DHT22;10399;50.754;3.366;2022-09-01T14:53:00;33.10;73.80
20481;DHT22;10399;50.754;3.366;2022-09-01T14:55:29;32.80;74.60
20481;DHT22;10399;50.754;3.366;2022-09-01T14:57:57;32.70;74.50
20481;DHT22;10399;50.754;3.366;2022-09-01T15:00:25;32.90;74.90
20481;DHT22;10399;50.754;3.366;2022-09-01T15:02:54;32.60;74.70
20481;DHT22;10399;50.754;3.366;2022-09-01T15:05:22;32.40;73.60
20481;DHT22;10399;50.754;3.366;2022-09-01T15:07:50;32.10;73.30
20481;DHT22;10399;50.754;3.366;2022-09-01T15:10:20;31.80;74.70
20481;DHT22;10399;50.754;3.366;2022-09-01T15:12:53;32.00;75.40
20481;DHT22;10399;50.754;3.366;2022-09-01T15:15:21;32.40;75.20
20481;DHT22;10399;50.754;3.366;2022-09-01T15:17:48;32.50;73.90
20481;DHT22;10399;50.754;3.366;2022-09-01T15:20:15;32.50;73.70
20481;DHT22;10399;50.754;3.366;2022-09-01T15:23:01;32.50;73.90
20481;DHT22;10399;50.754;3.366;2022-09-01T15:25:29;32.60;73.90
20481;DHT22;10399;50.754;3.366;2022-09-01T15:27:56;33.00;74.00
20481;DHT22;10399;50.754;3.366;2022-09-01T15:30:23;33.30;74.10
20481;DHT22;10399;50.754;3.366;2022-09-01T15:32:52;33.40;73.20
20481;DHT22;10399;50.754;3.366;2022-09-01T15:35:23;32.90;72.80
20481;DHT22;10399;50.754;3.366;2022-09-01T15:37:50;33.00;72.80
20481;DHT22;10399;50.754;3.366;2022-09-01T15:40:18;32.90;73.40
20481;DHT22;10399;50.754;3.366;2022-09-01T15:42:46;32.70;72.60
20481;DHT22;10399;50.754;3.366;2022-09-01T15:45:15;32.30;73.00
20481;DHT22;10399;50.754;3.366;2022-09-01T15:47:44;32.30;73.90
20481;DHT22;10399;50.754;3.366;2022-09-01T15:50:14;32.50;74.20
20481;DHT22;10399;50.754;3.366;2022-09-01T15:52:51;32.50;73.70
20481;DHT22;10399;50.754;3.366;2022-09-01T15:55:23;32.50;73.70
20481;DHT22;10399;50.754;3.366;2022-09-01T15:57:51;32.20;73.80
20481;DHT22;10399;50.754;3.366;2022-09-01T16:00:23;31.80;73.70
20481;DHT22;10399;50.754;3.366;2022-09-01T16:02:51;31.80;75.00
20481;DHT22;10399;50.754;3.366;2022-09-01T16:05:20;31.70;74.60
20481;DHT22;10399;50.754;3.366;2022-09-01T16:07:55;31.80;74.90
20481;DHT22;10399;50.754;3.366;2022-09-01T16:10:22;31.50;74.50
20481;DHT22;10399;50.754;3.366;2022-09-01T16:12:49;31.70;74.90
20481;DHT22;10399;50.754;3.366;2022-09-01T16:15:20;31.50;74.80
20481;DHT22;10399;50.754;3.366;2022-09-01T16:20:49;31.00;74.30
20481;DHT22;10399;50.754;3.366;2022-09-01T16:23:28;30.70;75.10
20481;DHT22;10399;50.754;3.366;2022-09-01T16:25:59;30.70;75.50
20481;DHT22;10399;50.754;3.366;2022-09-01T16:28:30;30.50;76.20
20481;DHT22;10399;50.754;3.366;2022-09-01T16:31:03;30.50;76.40
20481;DHT22;10399;50.754;3.366;2022-09-01T16:33:37;30.10;76.50
20481;DHT22;10399;50.754;3.366;2022-09-01T16:36:11;29.90;76.50
20481;DHT22;10399;50.754;3.366;2022-09-01T16:38:47;30.00;76.70
20481;DHT22;10399;50.754;3.366;2022-09-01T16:52:23;29.40;77.50
20481;DHT22;10399;50.754;3.366;2022-09-01T16:58:13;29.60;78.10
20481;DHT22;10399;50.754;3.366;2022-09-01T17:00:57;29.40;78.10
20481;DHT22;10399;50.754;3.366;2022-09-01T17:11:52;29.00;78.90
20481;DHT22;10399;50.754;3.366;2022-09-01T17:14:33;29.00;78.80
20481;DHT22;10399;50.754;3.366;2022-09-01T17:17:09;29.00;79.00
20481;DHT22;10399;50.754;3.366;2022-09-01T17:19:39;29.00;79.00
20481;DHT22;10399;50.754;3.366;2022-09-01T17:22:10;28.80;79.30
20481;DHT22;10399;50.754;3.366;2022-09-01T17:24:45;28.80;79.60
20481;DHT22;10399;50.754;3.366;2022-09-01T17:27:19;28.70;79.50
20481;DHT22;10399;50.754;3.366;2022-09-01T17:29:49;28.50;79.00
20481;DHT22;10399;50.754;3.366;2022-09-01T17:47:01;28.10;80.30
20481;DHT22;10399;50.754;3.366;2022-09-01T18:06:57;27.40;83.00
20481;DHT22;10399;50.754;3.366;2022-09-01T18:09:29;27.30;83.30
20481;DHT22;10399;50.754;3.366;2022-09-01T18:12:07;27.20;83.30
20481;DHT22;10399;50.754;3.366;2022-09-01T18:15:05;27.10;83.90
20481;DHT22;10399;50.754;3.366;2022-09-01T18:17:49;27.00;84.20
20481;DHT22;10399;50.754;3.366;2022-09-01T18:20:27;26.90;84.50
20481;DHT22;10399;50.754;3.366;2022-09-01T18:23:09;26.80;84.70
20481;DHT22;10399;50.754;3.366;2022-09-01T18:28:46;26.60;85.20
20481;DHT22;10399;50.754;3.366;2022-09-01T19:08:16;25.20;88.20
20481;DHT22;10399;50.754;3.366;2022-09-01T19:11:09;25.00;88.50
20481;DHT22;10399;50.754;3.366;2022-09-01T19:22:00;24.80;89.10